Time;durP1;ratioP1;P1;durP2;ratioP2;P2;SDS_P1;SDS_P2;PMS_P1;PMS_P2;Temp;Humidity;BMP_temperature;BMP_pressure;BME280_temperature;BME280_humidity;BME280_pressure;Samples;Min_cycle;Max_cycle;Signal;HPM_P1;HPM_P2
2023/01/21 00:02:01;;;;;;;63.53;34.33;;;;;;;;;;5065773;28;20028;-68
2023/01/21 00:04:27;;;;;;;64.60;34.22;;;;;;;;;;5063015;28;20028;-68
2023/01/21 00:06:53;;;;;;;65.28;35.00;;;;;;;;;;5070928;28;20024;-68
2023/01/21 00:09:19;;;;;;;70.53;36.17;;;;;;;;;;5062944;28;20505;-68
2023/01/21 00:11:45;;;;;;;63.47;33.83;;;;;;;;;;5060345;28;20032;-68
2023/01/21 00:14:12;;;;;;;58.80;32.40;;;;;;;;;;5060247;28;20025;-68
2023/01/21 00:16:38;;;;;;;64.47;31.67;;;;;;;;;;5067690;28;20028;-68
2023/01/21 00:19:04;;;;;;;68.97;32.90;;;;;;;;;;5076374;28;20116;-68
2023/01/21 00:21:30;;;;;;;62.05;32.22;;;;;;;;;;5065184;28;20040;-68
2023/01/21 00:23:56;;;;;;;56.95;31.95;;;;;;;;;;5075863;28;20021;-68
2023/01/21 00:26:22;;;;;;;58.13;30.80;;;;;;;;;;5063601;28;20074;-68
2023/01/21 00:28:48;;;;;;;52.13;27.73;;;;;;;;;;5065615;28;20025;-68
2023/01/21 00:31:14;;;;;;;54.92;27.92;;;;;;;;;;5060484;28;20045;-68
2023/01/21 00:33:41;;;;;;;52.10;27.50;;;;;;;;;;5087935;28;20063;-68
2023/01/21 00:36:08;;;;;;;59.60;29.35;;;;;;;;;;5086538;28;20048;-68
2023/01/21 00:38:35;;;;;;;53.55;27.70;;;;;;;;;;5065656;28;20068;-68
2023/01/21 00:41:01;;;;;;;52.80;27.15;;;;;;;;;;5069355;28;20028;-68
2023/01/21 00:43:27;;;;;;;50.28;27.13;;;;;;;;;;5058201;28;20487;-68
2023/01/21 00:45:53;;;;;;;53.10;27.77;;;;;;;;;;5071416;28;20174;-68
2023/01/21 00:48:20;;;;;;;53.75;26.00;;;;;;;;;;5062816;28;20021;-68
2023/01/21 00:50:46;;;;;;;45.33;25.00;;;;;;;;;;5063973;28;20601;-68
2023/01/21 00:53:12;;;;;;;46.58;25.17;;;;;;;;;;5069732;28;20099;-68
2023/01/21 00:55:38;;;;;;;49.97;25.65;;;;;;;;;;5058146;28;20025;-68
2023/01/21 00:58:04;;;;;;;45.33;23.88;;;;;;;;;;5069747;28;20035;-68
2023/01/21 01:00:30;;;;;;;52.97;24.67;;;;;;;;;;5063743;28;20030;-68
2023/01/21 01:02:56;;;;;;;47.15;24.77;;;;;;;;;;5062872;28;20025;-68
2023/01/21 01:05:22;;;;;;;47.03;25.75;;;;;;;;;;5070855;28;20568;-68
2023/01/21 01:07:49;;;;;;;46.72;23.63;;;;;;;;;;5056388;28;20040;-68
2023/01/21 01:10:16;;;;;;;45.40;23.80;;;;;;;;;;5068396;28;20108;-68
2023/01/21 01:12:42;;;;;;;40.58;23.50;;;;;;;;;;5064809;28;20020;-68
2023/01/21 01:15:08;;;;;;;41.10;21.58;;;;;;;;;;5060974;28;20079;-68
2023/01/21 01:17:34;;;;;;;32.90;18.58;;;;;;;;;;5071013;28;20016;-68
2023/01/21 01:20:01;;;;;;;29.70;17.02;;;;;;;;;;5059158;28;20025;-68
2023/01/21 01:22:27;;;;;;;25.00;14.85;;;;;;;;;;5066467;28;20029;-68
2023/01/21 01:24:53;;;;;;;27.52;14.63;;;;;;;;;;5066175;28;20024;-68
2023/01/21 01:27:19;;;;;;;31.13;15.32;;;;;;;;;;5080174;28;20020;-68
2023/01/21 01:29:45;;;;;;;29.05;14.82;;;;;;;;;;5057555;28;20031;-68
2023/01/21 01:32:11;;;;;;;31.20;16.55;;;;;;;;;;5067439;28;20028;-68
2023/01/21 01:34:37;;;;;;;31.67;16.15;;;;;;;;;;5063249;28;20020;-67
2023/01/21 01:37:04;;;;;;;28.77;14.40;;;;;;;;;;5062777;28;20033;-68
2023/01/21 01:39:30;;;;;;;27.95;13.60;;;;;;;;;;5074005;28;20027;-68
2023/01/21 01:41:57;;;;;;;30.55;14.70;;;;;;;;;;5070867;28;20052;-68
2023/01/21 01:44:41;;;;;;;25.55;14.35;;;;;;;;;;5061356;28;20117;-68
2023/01/21 01:47:07;;;;;;;26.08;14.45;;;;;;;;;;5061164;28;20033;-68
2023/01/21 01:49:34;;;;;;;29.30;14.45;;;;;;;;;;5070362;28;20115;-68
2023/01/21 01:52:02;;;;;;;29.90;14.63;;;;;;;;;;5057313;28;20027;-68
2023/01/21 01:54:33;;;;;;;24.02;14.82;;;;;;;;;;5066570;28;20021;-62
2023/01/21 01:57:00;;;;;;;24.95;14.23;;;;;;;;;;5064580;28;20032;-61
2023/01/21 01:59:27;;;;;;;27.40;14.38;;;;;;;;;;5058377;28;20029;-61
2023/01/21 02:01:53;;;;;;;28.13;14.00;;;;;;;;;;5069924;28;20130;-61
2023/01/21 02:04:20;;;;;;;25.17;13.98;;;;;;;;;;5082255;28;20417;-61
2023/01/21 02:06:47;;;;;;;23.55;13.23;;;;;;;;;;5063462;28;20048;-61
2023/01/21 02:09:13;;;;;;;26.98;14.45;;;;;;;;;;5067244;28;20020;-61
2023/01/21 02:11:39;;;;;;;28.90;15.88;;;;;;;;;;5056894;28;20077;-61
2023/01/21 02:14:05;;;;;;;30.13;16.27;;;;;;;;;;5069706;28;20013;-61
2023/01/21 02:16:47;;;;;;;26.85;15.65;;;;;;;;;;5061008;28;20375;-61
2023/01/21 02:19:19;;;;;;;33.70;17.95;;;;;;;;;;5060580;28;20541;-61
2023/01/21 02:21:54;;;;;;;23.10;14.63;;;;;;;;;;5068335;28;20036;-61
2023/01/21 02:24:26;;;;;;;26.73;14.98;;;;;;;;;;5059358;28;20025;-61
2023/01/21 02:27:02;;;;;;;26.35;16.08;;;;;;;;;;5062874;28;20124;-61
2023/01/21 02:29:48;;;;;;;27.27;15.48;;;;;;;;;;5068401;28;20028;-61
2023/01/21 02:32:20;;;;;;;26.77;14.55;;;;;;;;;;5053874;28;20025;-61
2023/01/21 02:35:08;;;;;;;36.50;16.42;;;;;;;;;;5061339;28;20033;-61
2023/01/21 02:37:38;;;;;;;31.23;16.73;;;;;;;;;;5069006;28;20024;-61
2023/01/21 02:40:04;;;;;;;35.63;15.32;;;;;;;;;;5069726;28;20399;-61
2023/01/21 02:42:37;;;;;;;31.20;16.38;;;;;;;;;;5059367;28;20031;-61
2023/01/21 02:45:29;;;;;;;32.15;16.55;;;;;;;;;;5061837;28;20033;-61
2023/01/21 02:48:16;;;;;;;29.52;16.58;;;;;;;;;;5067503;28;20048;-61
2023/01/21 02:50:48;;;;;;;28.25;15.10;;;;;;;;;;5066411;28;20036;-61
2023/01/21 02:53:34;;;;;;;28.77;15.87;;;;;;;;;;5079953;28;20020;-61
2023/01/21 02:56:02;;;;;;;29.73;16.13;;;;;;;;;;5055903;28;20028;-61
2023/01/21 02:58:30;;;;;;;28.77;14.85;;;;;;;;;;5066752;28;20020;-61
2023/01/21 03:01:05;;;;;;;25.60;14.38;;;;;;;;;;5061516;28;20028;-61
2023/01/21 03:03:34;;;;;;;25.45;14.00;;;;;;;;;;5057636;28;20486;-61
2023/01/21 03:06:03;;;;;;;26.02;13.25;;;;;;;;;;5069035;28;20498;-61
2023/01/21 03:08:40;;;;;;;27.15;13.73;;;;;;;;;;5058876;28;20078;-61
2023/01/21 03:11:14;;;;;;;25.77;13.25;;;;;;;;;;5061190;28;20021;-61
2023/01/21 03:16:56;;;;;;;31.85;15.38;;;;;;;;;;5052906;28;20029;-61
2023/01/21 03:19:31;;;;;;;23.77;12.82;;;;;;;;;;5065554;28;20027;-61
2023/01/21 03:21:58;;;;;;;27.42;14.23;;;;;;;;;;5055432;28;20029;-61
2023/01/21 03:24:24;;;;;;;25.02;12.98;;;;;;;;;;5067419;28;20059;-61
2023/01/21 03:26:54;;;;;;;22.00;12.40;;;;;;;;;;5060762;28;20032;-61
2023/01/21 03:29:25;;;;;;;29.08;13.85;;;;;;;;;;5059599;28;20021;-61
2023/01/21 03:31:53;;;;;;;23.48;12.98;;;;;;;;;;5068544;28;20486;-61
2023/01/21 03:34:19;;;;;;;26.08;14.02;;;;;;;;;;5056385;28;20017;-61
2023/01/21 03:36:52;;;;;;;24.00;13.15;;;;;;;;;;5063835;28;20037;-61
2023/01/21 03:39:21;;;;;;;28.20;15.60;;;;;;;;;;5071689;28;20032;-61
2023/01/21 03:41:48;;;;;;;26.27;14.63;;;;;;;;;;5055500;28;20390;-61
2023/01/21 03:44:15;;;;;;;30.63;14.80;;;;;;;;;;5052516;28;20106;-61
2023/01/21 03:46:49;;;;;;;24.88;13.38;;;;;;;;;;5059388;28;20502;-61
2023/01/21 03:49:36;;;;;;;22.83;13.32;;;;;;;;;;5059568;28;20115;-61
2023/01/21 03:52:04;;;;;;;29.23;13.85;;;;;;;;;;5068182;28;20115;-61
2023/01/21 03:54:30;;;;;;;25.90;13.57;;;;;;;;;;5057452;28;20021;-61
2023/01/21 03:56:56;;;;;;;25.48;14.13;;;;;;;;;;5062519;28;20052;-61
2023/01/21 03:59:22;;;;;;;28.77;16.17;;;;;;;;;;5064666;28;20028;-61
2023/01/21 04:01:48;;;;;;;25.27;13.85;;;;;;;;;;5055247;28;20029;-61
2023/01/21 04:04:14;;;;;;;25.05;13.77;;;;;;;;;;5068348;28;20098;-61
2023/01/21 04:06:40;;;;;;;24.83;13.93;;;;;;;;;;5058537;28;20028;-61
2023/01/21 04:09:07;;;;;;;23.25;13.18;;;;;;;;;;5061170;28;20360;-61
2023/01/21 04:11:33;;;;;;;22.58;13.48;;;;;;;;;;5065801;28;20025;-61
2023/01/21 04:13:59;;;;;;;22.73;12.75;;;;;;;;;;5054614;28;20029;-61
2023/01/21 04:16:25;;;;;;;26.60;12.68;;;;;;;;;;5066879;28;20017;-61
2023/01/21 04:18:52;;;;;;;23.48;14.10;;;;;;;;;;5059870;28;20028;-61
2023/01/21 04:21:19;;;;;;;20.83;11.60;;;;;;;;;;5059591;28;20090;-61
2023/01/21 04:23:45;;;;;;;22.13;11.75;;;;;;;;;;5067170;28;20414;-61
2023/01/21 04:26:11;;;;;;;24.13;12.38;;;;;;;;;;5054483;28;20555;-61
2023/01/21 04:28:37;;;;;;;21.25;12.45;;;;;;;;;;5065496;28;20040;-61
2023/01/21 04:31:03;;;;;;;24.20;12.73;;;;;;;;;;5060465;28;20186;-61
2023/01/21 04:33:29;;;;;;;25.75;12.32;;;;;;;;;;5063867;28;20033;-61
2023/01/21 04:35:59;;;;;;;23.20;12.38;;;;;;;;;;5059750;28;20132;-61
2023/01/21 04:38:26;;;;;;;16.95;11.82;;;;;;;;;;5071217;28;20029;-61
2023/01/21 04:40:52;;;;;;;20.55;13.00;;;;;;;;;;5055457;28;20021;-61
2023/01/21 04:43:18;;;;;;;21.65;12.52;;;;;;;;;;5067594;28;20394;-61
2023/01/21 04:45:44;;;;;;;23.67;11.25;;;;;;;;;;5057766;28;20024;-61
2023/01/21 04:48:10;;;;;;;20.00;11.80;;;;;;;;;;5061095;28;20041;-61
2023/01/21 04:50:37;;;;;;;18.27;11.30;;;;;;;;;;5065000;28;20029;-61
2023/01/21 04:53:03;;;;;;;18.30;12.43;;;;;;;;;;5054524;28;20056;-61
2023/01/21 04:55:29;;;;;;;15.48;10.23;;;;;;;;;;5066878;28;20494;-61
2023/01/21 04:57:55;;;;;;;18.05;11.32;;;;;;;;;;5059191;28;20402;-61
2023/01/21 05:00:21;;;;;;;22.35;12.43;;;;;;;;;;5059467;28;20089;-61
2023/01/21 05:02:47;;;;;;;20.73;12.60;;;;;;;;;;5066206;28;20037;-61
2023/01/21 05:05:13;;;;;;;20.17;11.40;;;;;;;;;;5052838;28;20534;-61
2023/01/21 05:07:40;;;;;;;28.80;13.32;;;;;;;;;;5069030;28;20074;-61
2023/01/21 05:10:06;;;;;;;18.25;11.32;;;;;;;;;;5063832;28;20032;-61
2023/01/21 05:12:32;;;;;;;21.77;10.80;;;;;;;;;;5062276;28;20483;-61
2023/01/21 05:14:58;;;;;;;23.75;11.85;;;;;;;;;;5070771;28;20068;-61
2023/01/21 05:17:25;;;;;;;31.83;15.35;;;;;;;;;;5058217;28;20516;-61
2023/01/21 05:19:51;;;;;;;58.03;24.60;;;;;;;;;;5067962;28;20059;-61
2023/01/21 05:22:17;;;;;;;55.20;22.92;;;;;;;;;;5064962;28;20097;-61
2023/01/21 05:24:43;;;;;;;52.78;22.25;;;;;;;;;;5060788;28;20033;-61
2023/01/21 05:27:09;;;;;;;38.47;18.25;;;;;;;;;;5070809;28;20116;-61
2023/01/21 05:29:35;;;;;;;38.03;16.83;;;;;;;;;;5058769;28;20024;-61
2023/01/21 05:32:01;;;;;;;28.60;15.45;;;;;;;;;;5082764;28;20025;-61
2023/01/21 05:34:27;;;;;;;28.88;13.98;;;;;;;;;;5062924;28;20021;-61
2023/01/21 05:36:54;;;;;;;23.88;13.07;;;;;;;;;;5069259;28;20083;-61
2023/01/21 05:39:20;;;;;;;24.48;13.38;;;;;;;;;;5071582;28;20025;-61
2023/01/21 05:41:46;;;;;;;20.90;12.38;;;;;;;;;;5060257;28;20025;-61
2023/01/21 05:44:12;;;;;;;26.75;13.48;;;;;;;;;;5064425;28;20036;-61
2023/01/21 05:46:38;;;;;;;29.98;15.65;;;;;;;;;;5067130;28;20028;-61
2023/01/21 05:49:05;;;;;;;30.90;14.80;;;;;;;;;;5056499;28;20120;-61
2023/01/21 05:51:31;;;;;;;28.00;14.60;;;;;;;;;;5103229;28;20537;-61
2023/01/21 05:53:57;;;;;;;32.50;14.40;;;;;;;;;;5061869;28;20024;-61
2023/01/21 05:56:23;;;;;;;30.98;14.85;;;;;;;;;;5075577;28;20056;-61
2023/01/21 05:58:49;;;;;;;28.95;14.85;;;;;;;;;;5056576;28;20029;-61
2023/01/21 06:01:15;;;;;;;32.80;14.75;;;;;;;;;;5070190;28;20033;-61
2023/01/21 06:03:41;;;;;;;27.27;14.20;;;;;;;;;;5054597;28;20106;-61
2023/01/21 06:06:08;;;;;;;28.92;15.15;;;;;;;;;;5061549;28;20465;-61
2023/01/21 06:08:34;;;;;;;28.73;15.52;;;;;;;;;;5075429;28;20064;-61
2023/01/21 06:11:00;;;;;;;36.88;15.40;;;;;;;;;;5071158;28;20059;-61
2023/01/21 06:13:26;;;;;;;28.08;14.68;;;;;;;;;;5066364;28;20029;-61
2023/01/21 06:15:55;;;;;;;30.58;15.00;;;;;;;;;;5067901;28;20094;-61
2023/01/21 06:18:22;;;;;;;30.27;13.93;;;;;;;;;;5067246;28;20086;-61
2023/01/21 06:20:48;;;;;;;34.95;16.65;;;;;;;;;;5065702;28;20017;-61
2023/01/21 06:23:14;;;;;;;25.80;14.48;;;;;;;;;;5069292;28;20039;-61
2023/01/21 06:25:42;;;;;;;23.77;11.93;;;;;;;;;;5065022;28;20029;-61
2023/01/21 06:28:11;;;;;;;24.63;13.20;;;;;;;;;;5068209;28;20541;-61
2023/01/21 06:30:37;;;;;;;26.23;13.73;;;;;;;;;;5065057;28;20032;-61
2023/01/21 06:33:03;;;;;;;33.00;16.15;;;;;;;;;;5070219;28;20070;-61
2023/01/21 06:35:30;;;;;;;29.80;14.70;;;;;;;;;;5065948;28;20048;-61
2023/01/21 06:37:56;;;;;;;30.95;15.35;;;;;;;;;;5067206;28;20025;-61
2023/01/21 06:40:22;;;;;;;31.52;15.18;;;;;;;;;;5069287;28;20051;-61
2023/01/21 06:42:49;;;;;;;32.35;15.55;;;;;;;;;;5068931;28;20481;-61
2023/01/21 06:45:15;;;;;;;31.13;14.57;;;;;;;;;;5066544;28;20024;-61
2023/01/21 06:47:42;;;;;;;32.85;16.65;;;;;;;;;;5064789;28;20033;-61
2023/01/21 06:50:12;;;;;;;33.85;16.67;;;;;;;;;;5070816;28;20048;-61
2023/01/21 06:52:41;;;;;;;37.58;16.15;;;;;;;;;;5073590;28;20065;-61
2023/01/21 06:55:07;;;;;;;31.30;15.98;;;;;;;;;;5082947;28;20012;-61
2023/01/21 06:57:34;;;;;;;29.02;14.65;;;;;;;;;;5071383;28;20039;-61
2023/01/21 07:00:00;;;;;;;29.15;14.35;;;;;;;;;;5077818;28;20040;-61
2023/01/21 07:02:26;;;;;;;27.75;13.35;;;;;;;;;;5062712;28;20020;-61
2023/01/21 07:04:52;;;;;;;28.05;14.77;;;;;;;;;;5069185;28;20036;-61
2023/01/21 07:07:18;;;;;;;28.50;14.57;;;;;;;;;;5072143;28;20039;-61
2023/01/21 07:09:45;;;;;;;28.02;13.30;;;;;;;;;;5056089;28;20020;-61
2023/01/21 07:12:11;;;;;;;28.17;14.55;;;;;;;;;;5064487;28;20032;-61
2023/01/21 07:14:37;;;;;;;32.35;14.65;;;;;;;;;;5062549;28;20032;-61
2023/01/21 07:17:03;;;;;;;31.65;14.65;;;;;;;;;;5058113;28;20100;-61
2023/01/21 07:19:29;;;;;;;26.08;14.02;;;;;;;;;;5067399;28;20024;-61
2023/01/21 07:21:55;;;;;;;25.17;13.98;;;;;;;;;;5057285;28;20425;-61
2023/01/21 07:24:21;;;;;;;19.95;13.13;;;;;;;;;;5063938;28;20032;-61
2023/01/21 07:26:48;;;;;;;21.88;13.73;;;;;;;;;;5063270;28;20031;-61
2023/01/21 07:29:14;;;;;;;24.38;12.23;;;;;;;;;;5056780;28;20025;-61
2023/01/21 07:31:40;;;;;;;21.95;10.43;;;;;;;;;;5067895;28;20035;-61
2023/01/21 07:34:06;;;;;;;21.75;12.05;;;;;;;;;;5084728;28;20028;-61
2023/01/21 07:36:32;;;;;;;19.05;10.98;;;;;;;;;;5081396;28;20036;-62
2023/01/21 07:38:58;;;;;;;22.15;12.57;;;;;;;;;;5064035;28;20111;-61
2023/01/21 07:41:24;;;;;;;25.52;13.35;;;;;;;;;;5068179;28;20037;-61
2023/01/21 07:43:51;;;;;;;28.23;12.65;;;;;;;;;;5065715;28;20021;-61
2023/01/21 07:46:18;;;;;;;30.33;12.85;;;;;;;;;;5066703;28;20372;-64
2023/01/21 07:48:47;;;;;;;20.90;13.15;;;;;;;;;;5077322;28;20622;-61
2023/01/21 07:51:13;;;;;;;22.10;12.65;;;;;;;;;;5081756;28;20075;-61
2023/01/21 07:53:39;;;;;;;26.98;14.90;;;;;;;;;;5078126;28;20023;-61
2023/01/21 07:56:06;;;;;;;26.45;15.32;;;;;;;;;;5080355;28;20040;-61
2023/01/21 07:58:32;;;;;;;22.77;12.80;;;;;;;;;;5071799;28;20017;-61
2023/01/21 08:00:59;;;;;;;28.60;14.30;;;;;;;;;;5068047;28;20067;-61
2023/01/21 08:03:25;;;;;;;21.45;13.93;;;;;;;;;;5071925;28;20028;-61
2023/01/21 08:05:51;;;;;;;27.20;14.60;;;;;;;;;;5067346;28;20056;-61
2023/01/21 08:08:18;;;;;;;27.77;14.13;;;;;;;;;;5066262;28;20020;-61
2023/01/21 08:10:44;;;;;;;33.08;13.70;;;;;;;;;;5054662;28;20036;-61
2023/01/21 08:13:10;;;;;;;28.70;13.13;;;;;;;;;;5063311;28;20017;-61
2023/01/21 08:15:36;;;;;;;25.73;14.95;;;;;;;;;;5060180;28;20078;-61
2023/01/21 08:18:03;;;;;;;29.00;13.85;;;;;;;;;;5057310;28;20032;-61
2023/01/21 08:20:29;;;;;;;26.70;12.98;;;;;;;;;;5073063;28;20413;-61
2023/01/21 08:22:58;;;;;;;25.83;13.25;;;;;;;;;;5084729;28;20040;-61
2023/01/21 08:25:24;;;;;;;28.20;14.35;;;;;;;;;;5064791;28;20036;-61
2023/01/21 08:27:51;;;;;;;32.92;17.50;;;;;;;;;;5061884;28;20482;-61
2023/01/21 08:30:17;;;;;;;29.90;16.42;;;;;;;;;;5077736;28;20017;-61
2023/01/21 08:32:44;;;;;;;26.40;14.50;;;;;;;;;;5054573;28;20021;-61
2023/01/21 08:35:11;;;;;;;23.10;13.90;;;;;;;;;;5067164;28;20036;-61
2023/01/21 08:37:38;;;;;;;26.27;14.00;;;;;;;;;;5068571;28;20094;-61
2023/01/21 08:40:05;;;;;;;25.67;15.38;;;;;;;;;;5076166;28;20077;-60
2023/01/21 08:42:31;;;;;;;26.15;14.90;;;;;;;;;;5076815;28;20028;-61
2023/01/21 08:44:57;;;;;;;33.33;16.30;;;;;;;;;;5071555;28;20051;-61
2023/01/21 08:47:23;;;;;;;31.27;18.80;;;;;;;;;;5069370;28;20028;-61
2023/01/21 08:49:49;;;;;;;33.38;19.45;;;;;;;;;;5064872;28;20116;-61
2023/01/21 08:52:20;;;;;;;39.33;19.65;;;;;;;;;;5071341;28;20017;-61
2023/01/21 08:54:46;;;;;;;32.88;18.90;;;;;;;;;;5070696;28;20025;-61
2023/01/21 08:57:12;;;;;;;34.33;19.10;;;;;;;;;;5072330;28;20024;-61
2023/01/21 08:59:39;;;;;;;28.00;16.88;;;;;;;;;;5074315;28;20073;-61
2023/01/21 09:02:05;;;;;;;41.00;17.90;;;;;;;;;;5074592;28;20028;-61
2023/01/21 09:04:31;;;;;;;35.25;19.10;;;;;;;;;;5068951;28;20044;-62
2023/01/21 09:06:57;;;;;;;33.97;19.08;;;;;;;;;;5060636;28;20037;-62
2023/01/21 09:09:23;;;;;;;43.67;22.75;;;;;;;;;;5067746;28;20501;-61
2023/01/21 09:11:51;;;;;;;60.42;28.52;;;;;;;;;;5073962;28;20025;-62
2023/01/21 09:14:17;;;;;;;54.28;29.00;;;;;;;;;;5084534;28;20058;-62
2023/01/21 09:16:43;;;;;;;46.90;25.25;;;;;;;;;;5078216;28;20016;-61
2023/01/21 09:19:09;;;;;;;50.20;24.65;;;;;;;;;;5058666;28;20050;-61
2023/01/21 09:21:36;;;;;;;44.53;23.20;;;;;;;;;;5067777;28;20427;-62
2023/01/21 09:24:03;;;;;;;32.33;18.70;;;;;;;;;;5064777;28;20068;-61
2023/01/21 09:26:29;;;;;;;33.03;19.50;;;;;;;;;;5060701;28;20029;-61
2023/01/21 09:28:56;;;;;;;39.72;18.83;;;;;;;;;;5083865;28;20447;-62
2023/01/21 09:31:24;;;;;;;42.00;21.45;;;;;;;;;;5086473;28;20047;-61
2023/01/21 09:33:52;;;;;;;50.50;23.80;;;;;;;;;;5066149;28;20033;-62
2023/01/21 09:36:19;;;;;;;52.63;26.35;;;;;;;;;;5066198;28;20045;-61
2023/01/21 09:38:46;;;;;;;48.03;24.77;;;;;;;;;;5068654;28;20016;-62
2023/01/21 09:41:18;;;;;;;53.08;26.33;;;;;;;;;;5070840;28;20021;-62
2023/01/21 09:44:00;;;;;;;54.38;26.92;;;;;;;;;;5068611;28;20413;-62
2023/01/21 09:46:34;;;;;;;51.95;24.80;;;;;;;;;;5072330;28;20029;-61
2023/01/21 09:49:02;;;;;;;49.28;23.50;;;;;;;;;;5070469;28;20032;-62
2023/01/21 09:51:33;;;;;;;50.20;25.50;;;;;;;;;;5066665;28;20048;-61
2023/01/21 09:54:00;;;;;;;51.90;26.38;;;;;;;;;;5077059;28;20021;-61
2023/01/21 09:56:35;;;;;;;43.72;23.30;;;;;;;;;;5061041;28;20017;-61
2023/01/21 09:59:09;;;;;;;56.15;23.95;;;;;;;;;;5070290;28;20024;-62
2023/01/21 10:01:38;;;;;;;47.85;22.23;;;;;;;;;;5060143;28;20039;-61
2023/01/21 10:04:25;;;;;;;41.05;21.45;;;;;;;;;;5063527;28;20036;-62
2023/01/21 10:06:54;;;;;;;37.88;19.83;;;;;;;;;;5069960;28;20445;-62
2023/01/21 10:09:20;;;;;;;37.45;20.10;;;;;;;;;;5056317;28;20032;-62
2023/01/21 10:11:52;;;;;;;35.35;21.15;;;;;;;;;;5066662;28;20048;-61
2023/01/21 10:14:37;;;;;;;41.40;19.83;;;;;;;;;;5065590;28;20129;-61
2023/01/21 10:17:06;;;;;;;30.08;17.27;;;;;;;;;;5056685;28;20033;-62
2023/01/21 10:19:35;;;;;;;32.45;17.98;;;;;;;;;;5068072;28;20017;-62
2023/01/21 10:22:21;;;;;;;30.98;17.50;;;;;;;;;;5062760;28;20501;-62
2023/01/21 10:25:10;;;;;;;32.88;16.88;;;;;;;;;;5058170;28;20032;-61
2023/01/21 10:27:37;;;;;;;26.88;15.65;;;;;;;;;;5048722;28;20063;-62
2023/01/21 10:30:08;;;;;;;25.42;14.52;;;;;;;;;;5062615;28;20024;-62
2023/01/21 10:32:37;;;;;;;33.92;17.40;;;;;;;;;;5059964;28;20386;-62
2023/01/21 10:35:15;;;;;;;30.75;15.25;;;;;;;;;;5069260;28;20049;-62
2023/01/21 10:37:45;;;;;;;32.38;16.08;;;;;;;;;;5059629;28;20450;-61
2023/01/21 10:40:46;;;;;;;31.38;16.73;;;;;;;;;;5072500;28;20033;-61
2023/01/21 10:43:22;;;;;;;29.48;15.43;;;;;;;;;;5047213;28;20509;-62
2023/01/21 10:45:48;;;;;;;25.85;15.52;;;;;;;;;;5036158;28;20072;-62
2023/01/21 10:48:17;;;;;;;35.20;17.25;;;;;;;;;;5031830;28;20514;-61
2023/01/21 10:50:53;;;;;;;26.48;15.18;;;;;;;;;;5036387;28;20041;-62
2023/01/21 10:53:38;;;;;;;26.85;16.75;;;;;;;;;;5047248;28;20194;-62
2023/01/21 10:56:04;;;;;;;27.02;14.10;;;;;;;;;;5039823;28;20044;-62
2023/01/21 10:58:36;;;;;;;31.48;15.95;;;;;;;;;;5038432;28;20068;-62
2023/01/21 11:01:04;;;;;;;31.85;15.90;;;;;;;;;;5047121;28;20155;-62
2023/01/21 11:03:31;;;;;;;28.00;13.82;;;;;;;;;;5017448;28;20025;-62
2023/01/21 11:05:59;;;;;;;32.78;14.13;;;;;;;;;;5042909;28;20025;-62
2023/01/21 11:08:26;;;;;;;26.25;13.57;;;;;;;;;;5042319;28;20017;-61
2023/01/21 11:10:54;;;;;;;22.00;11.70;;;;;;;;;;5035288;28;20041;-62
2023/01/21 11:13:20;;;;;;;17.35;9.23;;;;;;;;;;5046799;28;20025;-62
2023/01/21 11:15:49;;;;;;;11.57;4.63;;;;;;;;;;5036966;28;20171;-62
2023/01/21 11:18:28;;;;;;;15.20;5.25;;;;;;;;;;5050316;28;20391;-62
2023/01/21 11:20:56;;;;;;;11.57;5.20;;;;;;;;;;5068154;28;20033;-62
2023/01/21 11:23:34;;;;;;;10.15;6.28;;;;;;;;;;5055479;28;20058;-61
2023/01/21 11:26:14;;;;;;;14.63;6.60;;;;;;;;;;5064633;28;20041;-62
2023/01/21 11:28:40;;;;;;;10.93;4.68;;;;;;;;;;5065869;28;20367;-62
2023/01/21 11:31:10;;;;;;;6.50;3.60;;;;;;;;;;5055237;28;20028;-61
2023/01/21 11:33:36;;;;;;;8.18;3.58;;;;;;;;;;5068054;28;20028;-62
2023/01/21 11:36:10;;;;;;;6.57;2.90;;;;;;;;;;5060210;28;20084;-62
2023/01/21 11:38:37;;;;;;;11.35;5.18;;;;;;;;;;5060668;28;20406;-61
2023/01/21 11:41:23;;;;;;;20.15;4.22;;;;;;;;;;5071694;28;20016;-61
2023/01/21 11:43:52;;;;;;;9.05;3.53;;;;;;;;;;5058462;28;20053;-62
2023/01/21 11:46:24;;;;;;;11.85;4.20;;;;;;;;;;5061498;28;20025;-61
2023/01/21 11:48:53;;;;;;;14.18;5.13;;;;;;;;;;5066789;28;20020;-61
2023/01/21 11:51:19;;;;;;;16.08;5.82;;;;;;;;;;5055176;28;20029;-62
2023/01/21 11:53:45;;;;;;;18.02;6.38;;;;;;;;;;5066573;28;20554;-62
2023/01/21 11:56:12;;;;;;;19.65;6.63;;;;;;;;;;5060922;28;20029;-62
2023/01/21 11:58:39;;;;;;;19.88;8.27;;;;;;;;;;5060492;28;20074;-62
2023/01/21 12:01:17;;;;;;;21.75;8.73;;;;;;;;;;5072244;28;20027;-62
2023/01/21 12:03:47;;;;;;;16.77;8.02;;;;;;;;;;5060562;28;20516;-62
2023/01/21 12:06:20;;;;;;;18.52;8.43;;;;;;;;;;5074870;28;20016;-62
2023/01/21 12:08:48;;;;;;;13.38;7.93;;;;;;;;;;5073082;28;20550;-62
2023/01/21 12:11:18;;;;;;;19.17;8.18;;;;;;;;;;5087920;28;20032;-62
2023/01/21 12:13:44;;;;;;;20.38;6.95;;;;;;;;;;5059473;28;20023;-62
2023/01/21 12:16:20;;;;;;;14.43;7.30;;;;;;;;;;5073511;28;20064;-62
2023/01/21 12:18:46;;;;;;;31.50;8.15;;;;;;;;;;5071620;28;20086;-61
2023/01/21 12:21:31;;;;;;;20.77;7.18;;;;;;;;;;5070985;28;20030;-62
2023/01/21 12:24:06;;;;;;;16.65;6.97;;;;;;;;;;5071610;28;20024;-62
2023/01/21 12:26:37;;;;;;;15.70;5.93;;;;;;;;;;5072395;28;20429;-62
2023/01/21 12:29:21;;;;;;;16.42;5.03;;;;;;;;;;5070437;28;20055;-62
2023/01/21 12:32:20;;;;;;;14.50;4.97;;;;;;;;;;5070146;28;20436;-62
2023/01/21 12:35:04;;;;;;;14.75;7.13;;;;;;;;;;5028677;28;20047;-62
2023/01/21 12:37:35;;;;;;;15.60;4.90;;;;;;;;;;5014232;28;20033;-62
2023/01/21 12:40:08;;;;;;;14.48;5.43;;;;;;;;;;5026122;28;20520;-62
2023/01/21 12:42:36;;;;;;;12.60;5.13;;;;;;;;;;5028622;28;20047;-62
2023/01/21 12:45:09;;;;;;;12.88;4.88;;;;;;;;;;5025694;28;20056;-62
2023/01/21 12:47:41;;;;;;;15.68;5.65;;;;;;;;;;5021214;28;20030;-62
2023/01/21 12:50:16;;;;;;;15.55;5.07;;;;;;;;;;5019737;28;20050;-62
2023/01/21 12:53:00;;;;;;;17.50;7.40;;;;;;;;;;5017642;28;20419;-62
2023/01/21 12:55:34;;;;;;;16.40;5.00;;;;;;;;;;5017034;28;20110;-62
2023/01/21 12:58:19;;;;;;;15.07;6.22;;;;;;;;;;5012382;28;20038;-62
2023/01/21 13:00:48;;;;;;;13.15;5.43;;;;;;;;;;5024545;28;20074;-62
2023/01/21 13:03:23;;;;;;;13.77;6.15;;;;;;;;;;5020818;28;20050;-63
2023/01/21 13:06:07;;;;;;;15.48;5.72;;;;;;;;;;5020619;28;20190;-63
2023/01/21 13:08:39;;;;;;;14.63;5.97;;;;;;;;;;5028296;28;20658;-62
2023/01/21 13:11:11;;;;;;;16.98;6.13;;;;;;;;;;5071427;28;20493;-62
2023/01/21 13:13:41;;;;;;;14.07;6.15;;;;;;;;;;5072405;28;20056;-62
2023/01/21 13:16:08;;;;;;;18.52;7.13;;;;;;;;;;5077932;28;20111;-62
2023/01/21 13:18:35;;;;;;;16.52;7.05;;;;;;;;;;5074859;28;20050;-63
2023/01/21 13:21:22;;;;;;;15.07;6.55;;;;;;;;;;5074132;28;20032;-62
2023/01/21 13:23:52;;;;;;;14.35;6.57;;;;;;;;;;5066201;28;20048;-62
2023/01/21 13:26:41;;;;;;;19.80;7.70;;;;;;;;;;5066983;28;20078;-62
2023/01/21 13:29:12;;;;;;;19.88;7.30;;;;;;;;;;5056367;28;20052;-62
2023/01/21 13:31:42;;;;;;;19.85;6.53;;;;;;;;;;5070318;28;20474;-62
2023/01/21 13:34:26;;;;;;;22.60;8.68;;;;;;;;;;5067251;28;20096;-63
2023/01/21 13:36:59;;;;;;;18.88;6.88;;;;;;;;;;5084599;28;20044;-62
2023/01/21 13:39:28;;;;;;;18.57;8.83;;;;;;;;;;5084670;28;20029;-62
2023/01/21 13:41:54;;;;;;;20.13;7.53;;;;;;;;;;5083620;28;20028;-62
2023/01/21 13:44:36;;;;;;;21.23;9.00;;;;;;;;;;5085149;28;21360;-62
2023/01/21 13:47:06;;;;;;;21.10;8.20;;;;;;;;;;5081515;28;20073;-62
2023/01/21 13:49:32;;;;;;;14.27;6.93;;;;;;;;;;5081055;28;20302;-62
2023/01/21 13:52:14;;;;;;;14.10;6.70;;;;;;;;;;5083973;28;20481;-63
2023/01/21 13:54:43;;;;;;;21.75;8.45;;;;;;;;;;5082830;28;20016;-62
2023/01/21 13:57:18;;;;;;;23.42;8.38;;;;;;;;;;5085021;28;20067;-62
2023/01/21 13:59:47;;;;;;;22.35;8.90;;;;;;;;;;5082534;28;20455;-62
2023/01/21 14:02:16;;;;;;;18.95;8.43;;;;;;;;;;5079915;28;20025;-62
2023/01/21 14:05:12;;;;;;;19.00;8.18;;;;;;;;;;5081911;28;20091;-62
2023/01/21 14:07:50;;;;;;;17.83;7.95;;;;;;;;;;5069597;28;20497;-63
2023/01/21 14:10:26;;;;;;;19.63;9.18;;;;;;;;;;5078407;28;20550;-62
2023/01/21 14:12:53;;;;;;;12.95;7.20;;;;;;;;;;5080955;28;20031;-63
2023/01/21 14:15:48;;;;;;;15.38;7.70;;;;;;;;;;5083122;28;20044;-62
2023/01/21 14:18:28;;;;;;;14.05;6.95;;;;;;;;;;5066933;28;20036;-62
2023/01/21 14:20:57;;;;;;;19.20;7.75;;;;;;;;;;5081592;28;20039;-62
2023/01/21 14:23:30;;;;;;;14.07;6.70;;;;;;;;;;5081185;28;20256;-62
2023/01/21 14:25:59;;;;;;;13.02;6.55;;;;;;;;;;5083174;28;20366;-62
2023/01/21 14:28:32;;;;;;;10.40;5.90;;;;;;;;;;5082432;28;20035;-63
2023/01/21 14:31:03;;;;;;;15.90;5.80;;;;;;;;;;5082427;28;20035;-62
2023/01/21 14:33:35;;;;;;;15.07;5.90;;;;;;;;;;5080367;28;20474;-63
2023/01/21 14:36:20;;;;;;;12.25;5.70;;;;;;;;;;5079690;28;20509;-62
2023/01/21 14:38:49;;;;;;;12.65;5.93;;;;;;;;;;5080351;28;20028;-62